Time;durP1;ratioP1;P1;durP2;ratioP2;P2;SDS_P1;SDS_P2;PMS_P1;PMS_P2;Temp;Humidity;BMP_temperature;BMP_pressure;BME280_temperature;BME280_humidity;BME280_pressure;Samples;Min_cycle;Max_cycle;Signal;HPM_P1;HPM_P2
2024/03/28 00:02:14;;;;;;;3.07;1.20;;;;;7.80;97900.00;;;;10354664;28;20246;-79
2024/03/28 00:07:15;;;;;;;1.73;0.93;;;;;7.90;97900.00;;;;10367572;28;20219;-79
2024/03/28 00:12:16;;;;;;;3.40;1.10;;;;;7.90;97884.00;;;;10347538;28;20238;-80
2024/03/28 00:17:18;;;;;;;2.60;1.67;;;;;7.90;97879.00;;;;10366958;28;20301;-79
2024/03/28 00:22:19;;;;;;;2.03;1.57;;;;;7.80;97877.00;;;;10389856;28;20389;-80
2024/03/28 00:27:20;;;;;;;1.57;1.47;;;;;7.80;97869.00;;;;10359115;28;21091;-80
2024/03/28 00:32:21;;;;;;;4.43;2.00;;;;;7.80;97856.00;;;;10360238;28;20295;-81
2024/03/28 00:37:22;;;;;;;3.30;2.00;;;;;7.90;97849.00;;;;10363211;28;20226;-79
2024/03/28 00:42:23;;;;;;;2.27;1.80;;;;;8.00;97841.00;;;;10362282;28;20308;-80
2024/03/28 00:47:24;;;;;;;3.17;2.03;;;;;8.20;97850.00;;;;10322094;28;20269;-80
2024/03/28 00:52:27;;;;;;;2.47;1.60;;;;;8.20;97860.00;;;;10318500;28;20231;-80
2024/03/28 00:57:28;;;;;;;1.83;1.50;;;;;8.20;97854.00;;;;10320698;28;20254;-80
2024/03/28 01:02:30;;;;;;;3.17;1.60;;;;;8.20;97850.00;;;;10328414;28;20231;-79
2024/03/28 01:07:31;;;;;;;2.73;1.50;;;;;8.20;97844.00;;;;10346929;28;20219;-79
2024/03/28 01:12:32;;;;;;;2.27;1.80;;;;;8.20;97849.00;;;;10333478;28;20226;-79
2024/03/28 01:17:33;;;;;;;2.97;1.90;;;;;8.10;97844.00;;;;10374110;28;20317;-80
2024/03/28 01:22:34;;;;;;;2.80;1.60;;;;;8.00;97841.00;;;;10344233;28;20872;-80
2024/03/28 01:27:39;;;;;;;3.23;1.67;;;;;7.90;97823.00;;;;10346673;28;20254;-80
2024/03/28 01:32:41;;;;;;;3.10;1.63;;;;;7.90;97814.00;;;;10389455;28;20233;-79
2024/03/28 01:37:42;;;;;;;1.60;1.47;;;;;7.90;97807.00;;;;10364067;28;20227;-80
2024/03/28 01:42:43;;;;;;;1.97;1.77;;;;;8.00;97783.00;;;;10367822;28;20869;-80
2024/03/28 01:47:45;;;;;;;1.53;1.43;;;;;8.00;97778.00;;;;10362009;28;20306;-79
2024/03/28 01:52:55;;;;;;;2.40;1.83;;;;;8.00;97743.00;;;;10367976;28;20222;-81
2024/03/28 01:58:00;;;;;;;2.63;1.93;;;;;8.00;97717.00;;;;10344446;28;20227;-80
2024/03/28 02:03:02;;;;;;;1.70;1.60;;;;;8.00;97700.00;;;;10349745;28;20216;-81
2024/03/28 02:08:04;;;;;;;4.70;2.00;;;;;8.00;97687.00;;;;10338706;28;20705;-82
2024/03/28 02:13:05;;;;;;;1.63;1.53;;;;;7.90;97681.00;;;;10360941;28;20231;-82
2024/03/28 02:18:07;;;;;;;1.57;1.47;;;;;7.80;97658.00;;;;10379496;28;20220;-83
2024/03/28 02:23:08;;;;;;;1.60;1.50;;;;;7.70;97625.00;;;;10379005;28;20243;-82
2024/03/28 02:28:09;;;;;;;3.47;2.03;;;;;7.60;97641.00;;;;10362000;28;20586;-81
2024/03/28 02:33:10;;;;;;;3.97;2.00;;;;;7.40;97642.00;;;;10349078;28;20283;-82
2024/03/28 02:38:11;;;;;;;2.03;1.87;;;;;7.30;97646.00;;;;10372575;28;20297;-82
2024/03/28 02:43:12;;;;;;;2.10;1.90;;;;;7.20;97641.00;;;;10353720;28;20238;-82
2024/03/28 02:48:14;;;;;;;2.83;1.80;;;;;7.20;97657.00;;;;10391259;28;20230;-82
2024/03/28 02:53:15;;;;;;;2.67;1.50;;;;;7.20;97657.00;;;;10366202;28;20333;-83
2024/03/28 02:58:16;;;;;;;1.70;1.60;;;;;7.30;97657.00;;;;10352674;28;20229;-81
2024/03/28 03:03:17;;;;;;;1.67;1.57;;;;;7.30;97644.00;;;;10399829;28;20225;-82
2024/03/28 03:08:18;;;;;;;1.57;1.47;;;;;7.30;97646.00;;;;10395739;28;20292;-81
2024/03/28 03:13:20;;;;;;;3.13;1.97;;;;;7.20;97622.00;;;;10380745;28;20219;-86
2024/03/28 03:18:26;;;;;;;2.30;2.10;;;;;7.10;97610.00;;;;10392994;28;20250;-86
2024/03/28 03:23:28;;;;;;;1.50;1.40;;;;;7.10;97615.00;;;;10378943;28;20225;-84
2024/03/28 03:39:11;;;;;;;2.27;1.53;;;;;7.10;97603.00;;;;10378030;28;20219;-85
2024/03/28 03:44:12;;;;;;;1.70;1.60;;;;;7.10;97605.00;;;;10368980;28;20823;-87
2024/03/28 03:49:14;;;;;;;1.87;1.40;;;;;7.10;97593.00;;;;10371245;28;20226;-85
2024/03/28 03:54:15;;;;;;;2.67;1.43;;;;;7.10;97583.00;;;;10385480;28;20227;-87
2024/03/28 03:59:16;;;;;;;3.17;1.50;;;;;7.10;97589.00;;;;10367757;28;20241;-86
2024/03/28 04:04:17;;;;;;;2.60;1.40;;;;;7.20;97588.00;;;;10388090;28;20234;-87
2024/03/28 04:09:18;;;;;;;1.23;1.00;;;;;7.20;97592.00;;;;10385706;28;20230;-83
2024/03/28 04:14:20;;;;;;;2.43;1.43;;;;;7.20;97600.00;;;;10376409;28;20800;-83
2024/03/28 04:19:21;;;;;;;3.40;1.70;;;;;7.30;97602.00;;;;10390395;28;20227;-87
2024/03/28 04:24:22;;;;;;;1.97;1.50;;;;;7.40;97604.00;;;;10357986;28;20305;-79
2024/03/28 04:29:23;;;;;;;2.70;1.50;;;;;7.40;97611.00;;;;10378192;28;20960;-78
2024/03/28 04:34:25;;;;;;;1.40;1.20;;;;;7.40;97611.00;;;;10380226;28;20305;-80
2024/03/28 04:39:26;;;;;;;1.50;1.20;;;;;7.40;97603.00;;;;10369923;28;20227;-78
2024/03/28 04:44:27;;;;;;;1.50;1.40;;;;;7.50;97606.00;;;;10353976;28;20246;-77
2024/03/28 04:49:28;;;;;;;2.43;1.40;;;;;7.50;97600.00;;;;10369232;28;20385;-78
2024/03/28 04:54:32;;;;;;;2.13;1.47;;;;;7.50;97611.00;;;;10379493;28;20222;-79
2024/03/28 04:59:34;;;;;;;2.00;1.40;;;;;7.60;97610.00;;;;10344803;28;20253;-79
2024/03/28 05:04:35;;;;;;;2.07;1.50;;;;;7.60;97602.00;;;;10366556;28;20635;-78
2024/03/28 05:09:36;;;;;;;2.50;2.10;;;;;7.70;97618.00;;;;10374014;28;20238;-77
2024/03/28 05:14:37;;;;;;;2.27;1.60;;;;;7.60;97633.00;;;;10377162;28;20256;-81
2024/03/28 05:19:38;;;;;;;2.47;1.50;;;;;7.30;97642.00;;;;10370249;28;20258;-80
2024/03/28 05:24:39;;;;;;;1.37;1.20;;;;;7.00;97640.00;;;;10392286;28;20563;-80
2024/03/28 05:29:41;;;;;;;1.40;1.07;;;;;6.90;97645.00;;;;10352435;28;20230;-82
2024/03/28 05:34:43;;;;;;;0.73;0.70;;;;;6.80;97632.00;;;;10395407;28;20226;-83
2024/03/28 05:39:44;;;;;;;1.30;0.70;;;;;6.60;97640.00;;;;10370432;28;20250;-82
2024/03/28 05:44:45;;;;;;;0.60;0.60;;;;;6.60;97625.00;;;;10359603;28;20261;-80
2024/03/28 05:49:46;;;;;;;1.10;0.70;;;;;6.50;97626.00;;;;10367905;28;20250;-82
2024/03/28 05:54:47;;;;;;;1.70;0.90;;;;;6.50;97619.00;;;;10378302;28;21219;-83
2024/03/28 05:59:48;;;;;;;1.73;0.90;;;;;6.50;97623.00;;;;10375831;28;20305;-83
2024/03/28 06:04:50;;;;;;;1.10;0.80;;;;;6.60;97626.00;;;;10364171;28;20314;-82
2024/03/28 06:09:51;;;;;;;4.83;0.90;;;;;6.60;97623.00;;;;10378324;28;20242;-82
2024/03/28 06:14:52;;;;;;;1.07;0.90;;;;;6.60;97632.00;;;;10355945;28;20677;-82
2024/03/28 06:19:53;;;;;;;2.40;0.93;;;;;6.70;97638.00;;;;10389678;28;20242;-81
2024/03/28 06:24:55;;;;;;;1.93;0.90;;;;;6.60;97628.00;;;;10377138;28;21220;-82
2024/03/28 06:29:56;;;;;;;1.00;0.80;;;;;6.70;97635.00;;;;10366431;28;20242;-81
2024/03/28 06:34:58;;;;;;;2.03;0.97;;;;;6.70;97636.00;;;;10370733;28;20223;-82
2024/03/28 06:39:59;;;;;;;1.17;0.80;;;;;6.70;97638.00;;;;10380136;28;20306;-82
2024/03/28 06:45:01;;;;;;;1.70;0.70;;;;;6.80;97648.00;;;;10376792;28;20254;-83
2024/03/28 06:50:02;;;;;;;0.70;0.70;;;;;6.80;97645.00;;;;10365659;28;20711;-82
2024/03/28 06:55:04;;;;;;;1.37;1.13;;;;;6.90;97651.00;;;;10349733;28;20327;-83
2024/03/28 07:00:06;;;;;;;2.53;0.90;;;;;6.90;97660.00;;;;10372194;28;20225;-82
2024/03/28 07:05:07;;;;;;;1.33;1.20;;;;;7.10;97674.00;;;;10371141;28;20219;-83
2024/03/28 07:10:09;;;;;;;1.60;1.23;;;;;7.20;97676.00;;;;10367750;28;20258;-83
2024/03/28 07:15:10;;;;;;;2.80;1.00;;;;;7.30;97694.00;;;;10352019;28;20807;-83
2024/03/28 07:20:12;;;;;;;3.83;1.53;;;;;7.20;97699.00;;;;10364465;28;20345;-82
2024/03/28 07:25:13;;;;;;;3.07;0.80;;;;;7.10;97711.00;;;;10374611;28;20902;-79
2024/03/28 07:30:14;;;;;;;2.67;1.30;;;;;7.00;97716.00;;;;10362625;28;20250;-79
2024/03/28 07:35:16;;;;;;;2.43;1.10;;;;;7.00;97711.00;;;;10385993;28;20223;-77
2024/03/28 07:40:17;;;;;;;1.80;1.30;;;;;6.90;97726.00;;;;10377200;28;20371;-78
2024/03/28 07:45:18;;;;;;;2.30;1.20;;;;;7.20;97716.00;;;;10371239;28;20245;-80
2024/03/28 07:50:19;;;;;;;1.30;1.20;;;;;7.40;97722.00;;;;10362195;28;20898;-78
2024/03/28 07:55:20;;;;;;;2.53;1.43;;;;;7.50;97727.00;;;;10350206;28;20250;-78
2024/03/28 08:00:21;;;;;;;2.83;1.80;;;;;7.60;97740.00;;;;10378630;28;20238;-79
2024/03/28 08:05:22;;;;;;;5.37;2.37;;;;;7.50;97743.00;;;;10342842;28;20223;-79
2024/03/28 08:10:24;;;;;;;1.50;1.40;;;;;7.60;97748.00;;;;10344655;28;20227;-80
2024/03/28 08:15:25;;;;;;;2.20;1.57;;;;;7.60;97769.00;;;;10350697;28;20219;-78
2024/03/28 08:20:28;;;;;;;1.70;1.50;;;;;7.70;97774.00;;;;10366625;28;20262;-79
2024/03/28 08:25:29;;;;;;;2.67;1.40;;;;;8.10;97788.00;;;;10340761;28;20222;-80
2024/03/28 08:30:30;;;;;;;4.40;1.40;;;;;8.20;97800.00;;;;10327428;28;20683;-78
2024/03/28 08:35:39;;;;;;;1.90;1.70;;;;;8.50;97795.00;;;;10340229;28;20567;-78
2024/03/28 08:40:41;;;;;;;2.67;1.80;;;;;8.60;97821.00;;;;10388052;28;20255;-81
2024/03/28 08:45:42;;;;;;;3.13;1.70;;;;;9.00;97834.00;;;;10371013;28;20701;-79
2024/03/28 08:50:44;;;;;;;2.20;1.50;;;;;9.60;97839.00;;;;10369341;28;20305;-78
2024/03/28 08:55:45;;;;;;;3.97;1.80;;;;;9.90;97852.00;;;;10350450;28;20211;-79
2024/03/28 09:00:46;;;;;;;2.93;2.20;;;;;10.80;97861.00;;;;10324220;28;20223;-81
2024/03/28 09:05:48;;;;;;;5.50;3.23;;;;;12.70;97885.00;;;;10336727;28;20246;-80
2024/03/28 09:10:55;;;;;;;2.50;1.50;;;;;12.80;97907.00;;;;10319737;28;20343;-80
2024/03/28 09:15:57;;;;;;;1.43;0.90;;;;;12.60;97925.00;;;;10307596;28;20215;-81
2024/03/28 09:21:08;;;;;;;2.73;1.10;;;;;12.30;97958.00;;;;10314299;28;20226;-81
2024/03/28 09:26:09;;;;;;;3.57;0.97;;;;;12.00;97967.00;;;;10342418;28;20243;-80
2024/03/28 09:31:10;;;;;;;2.97;1.00;;;;;10.90;97984.00;;;;10338027;28;20629;-81
2024/03/28 09:36:16;;;;;;;3.90;1.10;;;;;11.40;97986.00;;;;10353887;28;20215;-80
2024/03/28 09:41:29;;;;;;;4.00;1.20;;;;;13.50;97994.00;;;;10353667;28;20766;-81
2024/03/28 09:46:32;;;;;;;2.93;0.67;;;;;14.80;98023.00;;;;10359254;28;20223;-79
2024/03/28 09:51:37;;;;;;;3.63;1.15;;;;;14.10;98033.00;;;;10345274;28;20625;-80
2024/03/28 09:56:39;;;;;;;2.30;1.08;;;;;13.70;98050.00;;;;10327705;28;1136122;-79
2024/03/28 10:01:46;;;;;;;2.93;0.90;;;;;12.10;98065.00;;;;10350534;28;20254;-81
2024/03/28 10:06:56;;;;;;;3.27;0.80;;;;;12.30;98072.00;;;;10351499;28;20315;-81
2024/03/28 10:11:57;;;;;;;2.13;0.57;;;;;14.60;98075.00;;;;10367928;28;20219;-87
2024/03/28 10:17:01;;;;;;;1.17;0.57;;;;;13.60;98099.00;;;;10371609;28;20304;-84
2024/03/28 10:22:07;;;;;;;3.40;0.63;;;;;13.30;98095.00;;;;10368143;28;20290;-83
2024/03/28 10:27:15;;;;;;;2.53;0.50;;;;;13.90;98109.00;;;;10390532;28;20206;-83
2024/03/28 10:32:16;;;;;;;1.85;0.50;;;;;15.10;98131.00;;;;10395729;28;20321;-85
2024/03/28 10:37:20;;;;;;;2.00;0.70;;;;;14.80;98122.00;;;;10376720;28;20239;-84
2024/03/28 10:42:25;;;;;;;2.10;0.65;;;;;14.00;98122.00;;;;10397281;28;20223;-84
2024/03/28 10:47:29;;;;;;;3.50;1.20;;;;;14.50;98119.00;;;;10391228;28;21619;-86
2024/03/28 10:52:50;;;;;;;1.20;0.68;;;;;15.50;98135.00;;;;10381176;28;20312;-85
2024/03/28 10:57:55;;;;;;;0.75;0.65;;;;;14.20;98151.00;;;;10384717;28;20762;-85
2024/03/28 11:02:56;;;;;;;0.73;0.60;;;;;14.70;98146.00;;;;10403405;28;20670;-88
2024/03/28 11:07:57;;;;;;;1.30;0.50;;;;;16.50;98153.00;;;;10366147;28;20227;-85
2024/03/28 11:12:58;;;;;;;0.57;0.40;;;;;15.20;98175.00;;;;10359402;28;20227;-86
2024/03/28 11:17:59;;;;;;;3.50;0.52;;;;;16.30;98194.00;;;;10382210;28;20245;-88
2024/03/28 11:23:04;;;;;;;4.88;0.55;;;;;17.50;98181.00;;;;10349475;28;20210;-83
2024/03/28 11:28:10;;;;;;;2.38;0.50;;;;;16.10;98198.00;;;;10377476;28;20223;-83
2024/03/28 11:33:13;;;;;;;1.95;0.85;;;;;14.20;98203.00;;;;10353921;28;20740;-83
2024/03/28 11:38:14;;;;;;;2.28;0.50;;;;;13.80;98183.00;;;;10337736;28;20214;-83
2024/03/28 11:43:22;;;;;;;4.60;0.50;;;;;16.20;98194.00;;;;10336575;28;20270;-83
2024/03/28 11:48:28;;;;;;;1.85;0.50;;;;;15.10;98206.00;;;;10379871;28;20250;-84
2024/03/28 11:53:29;;;;;;;2.97;0.52;;;;;15.10;98216.00;;;;10354054;28;20235;-83
2024/03/28 11:58:30;;;;;;;1.67;0.73;;;;;16.10;98214.00;;;;10354360;28;20219;-84
2024/03/28 12:03:32;;;;;;;1.40;0.82;;;;;16.00;98235.00;;;;10353913;28;20226;-82
2024/03/28 12:08:33;;;;;;;3.08;0.77;;;;;15.70;98234.00;;;;10344079;28;20954;-82
2024/03/28 12:13:35;;;;;;;0.70;0.60;;;;;14.90;98238.00;;;;10338429;28;20895;-83
2024/03/28 12:18:36;;;;;;;1.42;0.80;;;;;15.20;98238.00;;;;10349296;28;20219;-82
2024/03/28 12:23:38;;;;;;;4.68;0.95;;;;;15.60;98252.00;;;;10347380;28;20701;-81
2024/03/28 12:28:39;;;;;;;1.60;0.80;;;;;15.70;98254.00;;;;10355853;28;20241;-83
2024/03/28 12:33:40;;;;;;;2.35;1.02;;;;;15.50;98286.00;;;;10344289;28;20227;-82
2024/03/28 12:38:45;;;;;;;7.03;1.33;;;;;14.90;98293.00;;;;10331712;28;20226;-81
2024/03/28 12:43:57;;;;;;;3.88;1.38;;;;;15.20;98288.00;;;;10366240;28;20720;-82
2024/03/28 12:48:58;;;;;;;3.42;1.10;;;;;15.10;98298.00;;;;10369757;28;20230;-83
2024/03/28 12:53:59;;;;;;;3.13;1.25;;;;;14.80;98303.00;;;;10325373;28;20363;-83
2024/03/28 12:59:01;;;;;;;3.67;0.90;;;;;15.20;98295.00;;;;10327818;28;20305;-83
2024/03/28 13:04:02;;;;;;;3.35;0.77;;;;;14.90;98291.00;;;;10337010;28;20274;-84
2024/03/28 13:09:03;;;;;;;1.48;0.65;;;;;14.40;98298.00;;;;10335081;28;20827;-84
2024/03/28 13:14:04;;;;;;;2.08;0.60;;;;;14.50;98297.00;;;;10352861;28;20218;-85
2024/03/28 13:19:05;;;;;;;4.93;0.98;;;;;13.80;98295.00;;;;10341010;28;20233;-83
2024/03/28 13:24:06;;;;;;;2.28;0.75;;;;;14.50;98282.00;;;;10396119;28;20246;-83
2024/03/28 13:29:07;;;;;;;1.65;0.88;;;;;15.30;98296.00;;;;10376944;28;20214;-83
2024/03/28 13:34:08;;;;;;;2.63;1.17;;;;;15.50;98309.00;;;;10359758;28;20885;-83
2024/03/28 13:39:10;;;;;;;2.28;0.77;;;;;15.40;98302.00;;;;10352742;28;20225;-82
2024/03/28 13:44:11;;;;;;;2.42;0.77;;;;;14.80;98310.00;;;;10367948;28;20218;-84
2024/03/28 13:49:28;;;;;;;4.47;1.02;;;;;14.10;98312.00;;;;10348149;28;20737;-84
2024/03/28 13:54:30;;;;;;;6.68;1.00;;;;;14.50;98307.00;;;;10362965;28;20250;-85
2024/03/28 13:59:31;;;;;;;5.27;1.57;;;;;14.20;98313.00;;;;10403863;28;20215;-86
2024/03/28 14:04:32;;;;;;;3.17;0.80;;;;;13.90;98311.00;;;;10392567;28;20226;-85
2024/03/28 14:09:33;;;;;;;3.63;0.80;;;;;13.30;98323.00;;;;10378164;28;20222;-88
2024/03/28 14:14:39;;;;;;;3.67;0.83;;;;;13.70;98293.00;;;;10384966;28;20229;-85
2024/03/28 14:19:40;;;;;;;3.80;0.73;;;;;14.40;98311.00;;;;10369458;28;20246;-88
2024/03/28 14:24:41;;;;;;;2.58;0.60;;;;;14.80;98323.00;;;;10384706;28;20223;-86
2024/03/28 14:29:42;;;;;;;3.10;0.75;;;;;15.20;98309.00;;;;10359275;28;20293;-83
2024/03/28 14:34:43;;;;;;;3.17;0.63;;;;;15.20;98312.00;;;;10360359;28;20215;-88
2024/03/28 14:39:44;;;;;;;4.55;1.20;;;;;16.00;98317.00;;;;10369235;28;20221;-85
2024/03/28 14:44:45;;;;;;;3.65;1.10;;;;;15.90;98317.00;;;;10352912;28;20265;-89
2024/03/28 14:49:46;;;;;;;4.53;0.93;;;;;17.20;98319.00;;;;10421543;28;20678;-81
2024/03/28 14:54:50;;;;;;;6.38;1.20;;;;;16.80;98315.00;;;;10372613;28;20223;-80
2024/03/28 14:59:53;;;;;;;2.45;0.68;;;;;15.30;98323.00;;;;10367438;28;20819;-81
2024/03/28 15:04:54;;;;;;;10.20;1.40;;;;;15.90;98286.00;;;;10349017;28;20215;-81
2024/03/28 15:09:56;;;;;;;3.20;1.23;;;;;15.70;98301.00;;;;10345070;28;20222;-81
2024/03/28 15:14:57;;;;;;;4.97;1.33;;;;;15.50;98288.00;;;;10340841;28;20591;-81
2024/03/28 15:19:58;;;;;;;4.18;0.98;;;;;16.10;98258.00;;;;10320282;28;20305;-82
2024/03/28 15:24:59;;;;;;;4.40;0.98;;;;;15.70;98302.00;;;;10338182;28;20265;-80
2024/03/28 15:30:00;;;;;;;4.38;0.63;;;;;15.00;98289.00;;;;10336385;28;20221;-81
2024/03/28 15:35:01;;;;;;;8.10;1.20;;;;;14.60;98305.00;;;;10347040;28;20235;-80
2024/03/28 15:40:04;;;;;;;4.13;1.10;;;;;14.90;98332.00;;;;10349502;28;20632;-81
2024/03/28 15:45:06;;;;;;;6.20;0.98;;;;;14.30;98321.00;;;;10362009;28;20340;-79
2024/03/28 15:50:08;;;;;;;2.35;0.73;;;;;14.80;98305.00;;;;10337572;28;20234;-79
2024/03/28 15:55:09;;;;;;;3.67;1.10;;;;;14.80;98313.00;;;;10351462;28;20246;-80
2024/03/28 16:00:12;;;;;;;3.70;0.85;;;;;14.40;98307.00;;;;10369488;28;20234;-80
2024/03/28 16:05:17;;;;;;;4.03;1.30;;;;;13.80;98312.00;;;;10350160;28;20740;-80
2024/03/28 16:10:18;;;;;;;4.40;0.75;;;;;13.40;98333.00;;;;10330893;28;20892;-80
2024/03/28 16:15:19;;;;;;;4.33;1.00;;;;;13.30;98335.00;;;;10343911;28;20211;-79
2024/03/28 16:20:20;;;;;;;3.60;0.63;;;;;13.10;98334.00;;;;10364038;28;20226;-79
2024/03/28 16:25:21;;;;;;;2.60;0.80;;;;;13.30;98336.00;;;;10349553;28;20918;-81
2024/03/28 16:30:22;;;;;;;3.37;0.77;;;;;13.60;98339.00;;;;10334825;28;20227;-79
2024/03/28 16:35:23;;;;;;;4.03;1.00;;;;;13.30;98339.00;;;;10349149;28;20223;-78
2024/03/28 16:40:25;;;;;;;5.07;1.00;;;;;13.00;98337.00;;;;10347007;28;20234;-80
2024/03/28 16:45:26;;;;;;;4.77;1.10;;;;;13.20;98335.00;;;;10322951;28;20294;-80
2024/03/28 16:50:26;;;;;;;1.90;0.67;;;;;13.30;98337.00;;;;10357040;28;20623;-82
2024/03/28 16:55:27;;;;;;;2.57;0.57;;;;;12.90;98330.00;;;;10356022;28;20230;-80
2024/03/28 17:00:31;;;;;;;1.20;0.70;;;;;12.70;98327.00;;;;10336363;28;20283;-79
2024/03/28 17:05:35;;;;;;;2.53;0.97;;;;;12.60;98333.00;;;;10359207;28;20711;-80
2024/03/28 17:10:43;;;;;;;4.13;0.63;;;;;12.60;98343.00;;;;10348315;28;20214;-87
2024/03/28 17:15:54;;;;;;;2.43;0.77;;;;;12.40;98336.00;;;;10375148;28;21061;-89
2024/03/28 17:20:56;;;;;;;3.83;0.80;;;;;12.30;98330.00;;;;10344127;28;20223;-90
2024/03/28 17:26:04;;;;;;;3.27;0.63;;;;;12.10;98333.00;;;;10368636;28;20210;-88
2024/03/28 17:31:06;;;;;;;2.27;0.90;;;;;11.90;98322.00;;;;10368054;28;20264;-89
2024/03/28 17:36:07;;;;;;;2.90;0.73;;;;;11.80;98319.00;;;;10353777;28;20314;-88
2024/03/28 17:41:08;;;;;;;0.93;0.57;;;;;11.80;98320.00;;;;10344446;28;20237;-86
2024/03/28 17:46:13;;;;;;;2.73;0.80;;;;;11.70;98322.00;;;;10321187;28;20237;-87
2024/03/28 17:51:14;;;;;;;2.63;0.60;;;;;11.60;98341.00;;;;10344220;28;20214;-84
2024/03/28 17:56:15;;;;;;;0.40;0.40;;;;;11.50;98330.00;;;;10347295;28;20690;-89
2024/03/28 18:01:16;;;;;;;0.80;0.40;;;;;11.50;98346.00;;;;10362637;28;20222;-86
2024/03/28 18:06:17;;;;;;;6.63;1.00;;;;;11.30;98344.00;;;;10353360;28;20216;-88
2024/03/28 18:11:18;;;;;;;4.30;1.67;;;;;11.10;98372.00;;;;10359302;28;20241;-90
2024/03/28 18:16:19;;;;;;;1.80;0.73;;;;;11.00;98382.00;;;;10373297;28;20227;-88
2024/03/28 18:21:20;;;;;;;2.37;0.60;;;;;11.00;98390.00;;;;10354290;28;20310;-80
2024/03/28 18:26:22;;;;;;;4.70;0.80;;;;;11.00;98390.00;;;;10353782;28;20693;-80
2024/03/28 18:31:23;;;;;;;3.17;0.70;;;;;11.00;98418.00;;;;10367232;28;20321;-80
2024/03/28 18:36:24;;;;;;;8.33;0.80;;;;;10.90;98437.00;;;;10363822;28;20226;-79
2024/03/28 18:41:25;;;;;;;3.37;0.70;;;;;10.80;98444.00;;;;10342898;28;20230;-80
2024/03/28 18:46:26;;;;;;;2.00;0.60;;;;;10.70;98447.00;;;;10348376;28;21148;-81
2024/03/28 18:51:27;;;;;;;2.20;0.80;;;;;10.60;98459.00;;;;10351069;28;20327;-81
2024/03/28 18:56:28;;;;;;;5.43;0.90;;;;;10.60;98447.00;;;;10355546;28;20223;-81
2024/03/28 19:01:29;;;;;;;2.37;0.83;;;;;10.50;98450.00;;;;10348971;28;20687;-78
2024/03/28 19:06:30;;;;;;;4.07;1.07;;;;;10.40;98452.00;;;;10378766;28;20222;-79
2024/03/28 19:11:31;;;;;;;1.97;0.70;;;;;10.40;98463.00;;;;10353546;28;20223;-80
2024/03/28 19:16:32;;;;;;;2.27;0.67;;;;;10.30;98474.00;;;;10354180;28;20254;-80
2024/03/28 19:21:33;;;;;;;2.77;0.80;;;;;10.20;98478.00;;;;10350910;28;20806;-79
2024/03/28 19:26:34;;;;;;;3.70;1.10;;;;;10.20;98486.00;;;;10342208;28;20222;-80
2024/03/28 19:31:35;;;;;;;1.67;0.73;;;;;10.30;98486.00;;;;10360195;28;20223;-80
2024/03/28 19:36:37;;;;;;;4.10;0.90;;;;;10.30;98492.00;;;;10352089;28;20221;-80
2024/03/28 19:41:38;;;;;;;2.10;0.60;;;;;10.40;98509.00;;;;10340550;28;20258;-78
2024/03/28 19:46:39;;;;;;;3.23;0.90;;;;;10.30;98494.00;;;;10364528;28;20281;-81
2024/03/28 19:51:40;;;;;;;2.43;0.97;;;;;10.20;98509.00;;;;10384084;28;20227;-79
2024/03/28 19:56:42;;;;;;;5.10;0.90;;;;;10.20;98510.00;;;;10346415;28;21996;-81
2024/03/28 20:01:43;;;;;;;2.97;0.80;;;;;10.10;98505.00;;;;10363682;28;20230;-79
2024/03/28 20:06:44;;;;;;;2.10;1.17;;;;;10.10;98507.00;;;;10331524;28;20587;-78
2024/03/28 20:11:45;;;;;;;3.27;0.80;;;;;10.10;98512.00;;;;10375902;28;20271;-78
2024/03/28 20:16:46;;;;;;;3.10;1.10;;;;;10.20;98518.00;;;;10349496;28;20268;-79
2024/03/28 20:21:46;;;;;;;5.93;2.10;;;;;10.20;98526.00;;;;10341400;28;20361;-79
2024/03/28 20:26:47;;;;;;;3.63;0.90;;;;;10.10;98524.00;;;;10351725;28;20221;-79
2024/03/28 20:31:48;;;;;;;4.47;1.60;;;;;10.10;98535.00;;;;10358111;28;20233;-80
2024/03/28 20:36:50;;;;;;;4.00;0.80;;;;;10.00;98538.00;;;;10360212;28;20223;-82
2024/03/28 20:41:51;;;;;;;4.10;0.90;;;;;9.90;98530.00;;;;10347037;28;20213;-80
2024/03/28 20:47:05;;;;;;;3.60;0.83;;;;;9.90;98525.00;;;;10349187;28;20226;-81
2024/03/28 20:52:06;;;;;;;6.57;1.10;;;;;9.90;98531.00;;;;10367114;28;20234;-89
2024/03/28 20:57:08;;;;;;;3.43;1.00;;;;;9.90;98531.00;;;;10339119;28;20223;-88
2024/03/28 21:02:09;;;;;;;5.00;1.10;;;;;9.90;98528.00;;;;10365619;28;20214;-88
2024/03/28 21:12:32;;;;;;;4.83;1.27;;;;;9.90;98522.00;;;;10318143;28;20234;-85
2024/03/28 21:17:34;;;;;;;6.23;1.20;;;;;9.90;98526.00;;;;10357509;28;20218;-88
2024/03/28 21:22:36;;;;;;;4.83;0.90;;;;;9.90;98528.00;;;;10353661;28;20251;-86
2024/03/28 21:27:37;;;;;;;2.90;1.20;;;;;10.00;98527.00;;;;10339821;28;20223;-89
2024/03/28 21:32:38;;;;;;;5.87;1.10;;;;;10.00;98513.00;;;;10350344;28;20227;-85
2024/03/28 21:37:41;;;;;;;1.50;0.63;;;;;9.90;98536.00;;;;10383592;28;20296;-87
2024/03/28 21:42:44;;;;;;;7.07;1.50;;;;;9.90;98543.00;;;;10335523;28;20280;-89
2024/03/28 21:47:49;;;;;;;4.80;1.37;;;;;9.90;98552.00;;;;10373845;28;20222;-88
2024/03/28 21:52:49;;;;;;;3.67;1.13;;;;;9.90;98558.00;;;;10389833;28;20230;-89
2024/03/28 21:57:51;;;;;;;3.57;0.70;;;;;9.90;98557.00;;;;10357337;28;20218;-87
2024/03/28 22:02:52;;;;;;;3.23;1.23;;;;;9.90;98562.00;;;;10367565;28;20228;-81
2024/03/28 22:07:53;;;;;;;6.97;0.90;;;;;9.90;98539.00;;;;10332611;28;20623;-79
2024/03/28 22:12:54;;;;;;;2.83;0.87;;;;;10.00;98580.00;;;;10331252;28;20227;-79
2024/03/28 22:17:55;;;;;;;5.40;1.10;;;;;10.00;98575.00;;;;10340427;28;20219;-79
2024/03/28 22:22:56;;;;;;;3.13;1.03;;;;;10.00;98570.00;;;;10344126;28;20238;-79
2024/03/28 22:27:56;;;;;;;2.07;0.90;;;;;9.90;98576.00;;;;10356338;28;20270;-80
2024/03/28 22:32:57;;;;;;;3.43;0.97;;;;;9.80;98581.00;;;;10347440;28;20241;-80
2024/03/28 22:37:58;;;;;;;3.20;1.30;;;;;9.70;98590.00;;;;10362797;28;20268;-80
2024/03/28 22:42:59;;;;;;;2.97;1.13;;;;;9.70;98591.00;;;;10337051;28;20223;-78
2024/03/28 22:48:03;;;;;;;5.13;1.00;;;;;9.60;98577.00;;;;10360188;28;20254;-80
2024/03/28 22:53:07;;;;;;;3.77;0.90;;;;;9.60;98575.00;;;;10355969;28;20223;-80
2024/03/28 22:58:08;;;;;;;3.13;0.70;;;;;9.60;98583.00;;;;10342188;28;20226;-81
2024/03/28 23:03:09;;;;;;;3.43;0.70;;;;;9.50;98565.00;;;;10345991;28;20226;-80
2024/03/28 23:08:10;;;;;;;2.13;0.60;;;;;9.50;98572.00;;;;10339851;28;20379;-78
2024/03/28 23:13:11;;;;;;;4.27;0.90;;;;;9.60;98571.00;;;;10370074;28;20235;-85
2024/03/28 23:18:13;;;;;;;2.60;0.70;;;;;9.60;98561.00;;;;10354381;28;20306;-87
2024/03/28 23:23:14;;;;;;;3.40;0.97;;;;;9.70;98563.00;;;;10356575;28;20338;-84
2024/03/28 23:28:15;;;;;;;5.60;1.57;;;;;9.70;98548.00;;;;10355369;28;20273;-90
2024/03/28 23:33:16;;;;;;;3.57;1.10;;;;;9.60;98559.00;;;;10341153;28;20222;-87
2024/03/28 23:38:17;;;;;;;4.20;0.80;;;;;9.60;98550.00;;;;10360725;28;20218;-88
2024/03/28 23:43:18;;;;;;;5.07;1.03;;;;;9.60;98563.00;;;;10341508;28;20314;-89
2024/03/28 23:48:19;;;;;;;4.10;1.30;;;;;9.70;98561.00;;;;10341528;28;20299;-84
2024/03/28 23:53:20;;;;;;;4.40;1.00;;;;;9.60;98556.00;;;;10346332;28;20218;-89
2024/03/28 23:58:22;;;;;;;2.60;0.70;;;;;9.50;98559.00;;;;10349706;28;20245;-85
